Time;durP1;ratioP1;P1;durP2;ratioP2;P2;SDS_P1;SDS_P2;PMS_P1;PMS_P2;Temp;Humidity;BMP_temperature;BMP_pressure;BME280_temperature;BME280_humidity;BME280_pressure;Samples;Min_cycle;Max_cycle;Signal;HPM_P1;HPM_P2
2023/07/24 00:02:21;;;;;;;76.10;72.65;;;;;;;;;;4990796;28;20467;-75
2023/07/24 00:04:47;;;;;;;74.63;71.13;;;;;;;22.80;50.28;100346.56;4984645;28;20142;-70
2023/07/24 00:07:12;;;;;;;77.47;73.68;;;;;;;22.78;50.22;100352.44;4989336;28;20474;-70
2023/07/24 00:09:38;;;;;;;76.93;73.32;;;;;;;22.77;50.27;100337.03;4984160;28;20034;-70
2023/07/24 00:12:03;;;;;;;77.18;73.47;;;;;;;22.77;50.23;100330.72;4991811;28;20461;-70
2023/07/24 00:14:29;;;;;;;77.10;73.50;;;;;;;22.77;50.38;100331.53;4982989;28;20037;-71
2023/07/24 00:16:54;;;;;;;77.63;74.05;;;;;;;22.76;49.94;100329.91;4987665;28;20034;-71
2023/07/24 00:19:19;;;;;;;75.55;72.07;;;;;;;22.75;50.05;100328.28;4990368;28;20122;-71
2023/07/24 00:21:45;;;;;;;77.47;73.88;;;;;;;22.75;50.37;100333.78;4988466;28;20034;-70
2023/07/24 00:24:10;;;;;;;77.13;73.65;;;;;;;22.74;50.11;100326.69;4991151;28;20039;-71
2023/07/24 00:26:36;;;;;;;77.18;73.53;;;;;;;22.74;49.77;100317.63;4988568;28;20038;-70
2023/07/24 00:29:01;;;;;;;77.03;73.43;;;;;;;22.73;50.07;100321.50;4989740;28;20042;-70
2023/07/24 00:31:27;;;;;;;75.65;72.05;;;;;;;22.73;50.15;100329.75;4983930;28;20066;-70
2023/07/24 00:33:52;;;;;;;76.82;73.13;;;;;;;22.71;49.91;100302.59;4990193;28;20229;-70
2023/07/24 00:36:18;;;;;;;76.45;72.90;;;;;;;22.70;50.20;100303.72;4988821;28;20030;-70
2023/07/24 00:38:43;;;;;;;76.97;73.28;;;;;;;22.69;50.28;100300.16;4979485;28;20495;-71
2023/07/24 00:41:08;;;;;;;77.00;73.55;;;;;;;22.69;49.88;100296.59;5000574;28;20039;-70
2023/07/24 00:43:34;;;;;;;75.03;71.60;;;;;;;22.68;49.91;100300.50;4982853;28;20038;-70
2023/07/24 00:45:59;;;;;;;75.47;71.97;;;;;;;22.68;50.19;100306.00;4985907;28;20042;-70
2023/07/24 00:48:24;;;;;;;78.30;74.72;;;;;;;22.67;50.19;100296.13;4989995;28;20129;-72
2023/07/24 00:50:50;;;;;;;76.60;73.07;;;;;;;22.67;50.38;100298.88;4987585;28;20063;-70
2023/07/24 00:53:17;;;;;;;77.18;73.70;;;;;;;22.66;50.06;100300.84;4987019;28;20134;-70
2023/07/24 00:55:43;;;;;;;76.00;72.50;;;;;;;22.67;50.00;100293.38;4989966;28;20034;-69
2023/07/24 00:58:11;;;;;;;78.15;74.43;;;;;;;22.65;50.36;100290.97;4986716;28;20443;-70
2023/07/24 01:00:38;;;;;;;76.82;73.25;;;;;;;22.65;50.05;100290.97;4989070;28;20034;-70
2023/07/24 01:03:04;;;;;;;74.47;71.05;;;;;;;22.64;50.35;100294.84;4988865;28;20038;-70
2023/07/24 01:05:30;;;;;;;78.43;74.75;;;;;;;22.63;50.05;100296.00;4991580;28;20042;-70
2023/07/24 01:07:55;;;;;;;75.43;71.90;;;;;;;22.63;50.06;100289.69;4998826;28;20038;-71
2023/07/24 01:10:21;;;;;;;75.45;71.85;;;;;;;22.62;49.87;100280.59;4990271;28;20382;-71
2023/07/24 01:13:02;;;;;;;76.07;72.50;;;;;;;22.62;50.00;100286.13;4988439;28;20031;-70
2023/07/24 01:15:50;;;;;;;74.18;70.75;;;;;;;22.61;50.05;100278.22;4983125;28;20044;-70
2023/07/24 01:18:17;;;;;;;;;;;;;;;22.59;49.78;100272.22;4990301;28;20034;-70
2023/07/24 01:20:55;;;;;;;72.63;69.13;;;;;;;22.56;49.99;100273.72;4982565;28;19918;-70
2023/07/24 01:23:43;;;;;;;76.40;72.70;;;;;;;22.56;50.05;100268.19;4983353;28;20114;-70
2023/07/24 01:26:09;;;;;;;75.68;72.18;;;;;;;22.55;50.20;100268.53;4983715;28;20088;-70
2023/07/24 01:28:35;;;;;;;73.53;70.13;;;;;;;22.55;50.02;100263.03;4993075;28;20068;-69
2023/07/24 01:31:00;;;;;;;74.97;71.43;;;;;;;22.54;49.85;100267.72;4984731;28;20069;-71
2023/07/24 01:33:26;;;;;;;74.93;71.32;;;;;;;22.54;50.43;100272.44;4980342;28;20511;-69
2023/07/24 01:35:59;;;;;;;76.90;73.20;;;;;;;22.54;50.51;100259.47;4985323;28;20394;-69
2023/07/24 01:38:25;;;;;;;75.40;71.68;;;;;;;22.54;50.40;100261.41;4982709;28;20121;-70
2023/07/24 01:40:55;;;;;;;77.53;73.72;;;;;;;22.53;50.67;100259.78;4988698;28;20034;-69
2023/07/24 01:43:20;;;;;;;77.03;73.45;;;;;;;22.52;50.48;100253.47;4983901;28;20045;-70
2023/07/24 01:45:46;;;;;;;75.25;71.72;;;;;;;22.53;50.15;100252.38;4986238;28;20367;-69
2023/07/24 01:48:11;;;;;;;73.70;70.30;;;;;;;22.51;50.29;100240.88;4988531;28;20065;-70
2023/07/24 01:50:37;;;;;;;76.13;72.63;;;;;;;22.51;50.29;100240.06;4985331;28;20049;-72
2023/07/24 01:53:02;;;;;;;75.88;72.20;;;;;;;22.51;50.46;100240.88;4987781;28;20035;-70
2023/07/24 01:55:27;;;;;;;76.45;72.68;;;;;;;22.51;50.74;100240.06;4989997;28;20096;-70
2023/07/24 01:57:53;;;;;;;74.43;70.93;;;;;;;22.50;50.72;100232.94;4993391;28;20054;-72
2023/07/24 02:00:18;;;;;;;75.07;71.28;;;;;;;22.48;50.68;100230.53;4985783;28;20097;-71
2023/07/24 02:02:44;;;;;;;71.57;68.35;;;;;;;22.49;50.86;100225.84;4985008;28;20486;-70
2023/07/24 02:05:09;;;;;;;74.43;71.00;;;;;;;22.47;50.43;100223.41;4987452;28;20505;-70
2023/07/24 02:07:34;;;;;;;75.22;71.75;;;;;;;22.46;50.39;100225.38;4985745;28;20105;-70
2023/07/24 02:10:00;;;;;;;74.20;70.70;;;;;;;22.47;50.86;100224.22;4986278;28;20045;-70
2023/07/24 02:12:25;;;;;;;74.68;71.22;;;;;;;22.45;50.77;100218.25;4985563;28;20039;-70
2023/07/24 02:14:51;;;;;;;74.88;71.38;;;;;;;22.46;50.84;100219.06;4987469;28;20065;-70
2023/07/24 02:17:18;;;;;;;74.57;71.07;;;;;;;22.45;50.97;100234.78;4987848;28;20047;-70
2023/07/24 02:19:44;;;;;;;72.43;69.13;;;;;;;22.44;50.63;100230.38;4989651;28;20034;-70
2023/07/24 02:22:10;;;;;;;73.00;69.63;;;;;;;22.44;50.75;100229.59;4987736;28;20121;-70
2023/07/24 02:24:35;;;;;;;74.03;70.53;;;;;;;22.43;50.64;100239.00;4981532;28;20526;-70
2023/07/24 02:27:01;;;;;;;75.68;71.88;;;;;;;22.43;50.58;100239.00;4989112;28;20513;-69
2023/07/24 02:29:26;;;;;;;73.60;70.10;;;;;;;22.43;50.88;100247.25;4989507;28;20392;-70
2023/07/24 02:31:54;;;;;;;74.90;71.43;;;;;;;22.41;50.86;100241.28;4987523;28;20026;-70
2023/07/24 02:34:24;;;;;;;70.28;66.68;;;;;;;22.40;50.86;100239.66;4982231;28;20096;-70
2023/07/24 02:36:49;;;;;;;73.95;70.55;;;;;;;22.40;50.58;100231.38;4999889;28;20038;-71
2023/07/24 02:39:15;;;;;;;73.07;69.68;;;;;;;22.39;50.91;100218.78;4989468;28;20406;-70
2023/07/24 02:41:40;;;;;;;75.60;72.20;;;;;;;22.38;50.59;100212.47;4989688;28;20362;-71
2023/07/24 02:44:06;;;;;;;72.85;69.45;;;;;;;22.37;50.32;100197.09;4981222;28;20404;-71
2023/07/24 02:46:31;;;;;;;73.03;69.72;;;;;;;22.37;50.71;100201.78;4985625;28;20415;-70
2023/07/24 02:48:56;;;;;;;74.93;71.47;;;;;;;22.36;50.46;100202.94;4991597;28;20034;-70
2023/07/24 02:51:22;;;;;;;74.47;71.07;;;;;;;22.36;50.72;100205.69;4985181;28;20042;-70
2023/07/24 02:53:47;;;;;;;73.40;70.03;;;;;;;22.34;50.63;100208.78;4982231;28;20035;-71
2023/07/24 02:56:12;;;;;;;72.85;69.57;;;;;;;22.35;50.50;100212.31;4984181;28;20062;-70
2023/07/24 02:58:38;;;;;;;76.22;72.72;;;;;;;22.34;50.30;100208.78;4990500;28;20115;-70
2023/07/24 03:01:07;;;;;;;73.40;70.00;;;;;;;22.33;50.75;100207.19;4982011;28;20042;-71
2023/07/24 03:03:33;;;;;;;75.32;71.93;;;;;;;22.33;50.46;100203.63;4985032;28;20042;-70
2023/07/24 03:05:59;;;;;;;75.35;71.55;;;;;;;22.31;50.91;100195.69;4984175;28;20066;-71
2023/07/24 03:08:25;;;;;;;74.63;71.22;;;;;;;22.32;50.38;100196.50;4985067;28;20514;-70
2023/07/24 03:10:50;;;;;;;71.32;68.03;;;;;;;22.31;50.77;100198.44;4988201;28;20490;-70
2023/07/24 03:13:15;;;;;;;75.20;71.60;;;;;;;22.30;50.85;100196.84;4985620;28;20189;-74
2023/07/24 03:15:41;;;;;;;75.97;72.18;;;;;;;22.30;50.47;100196.84;4984809;28;20376;-70
2023/07/24 03:18:06;;;;;;;75.05;71.60;;;;;;;22.29;50.81;100191.66;4985218;28;20046;-70
2023/07/24 03:20:32;;;;;;;71.32;68.00;;;;;;;22.29;50.48;100197.16;4986922;28;20405;-70
2023/07/24 03:22:57;;;;;;;75.32;71.63;;;;;;;22.28;50.82;100195.56;4984391;28;20049;-70
2023/07/24 03:25:23;;;;;;;70.80;67.40;;;;;;;22.27;50.58;100194.75;4983237;28;20122;-70
2023/07/24 03:27:48;;;;;;;71.85;68.55;;;;;;;22.26;50.83;100193.16;4985675;28;20038;-71
2023/07/24 03:30:14;;;;;;;75.07;71.43;;;;;;;22.25;50.97;100186.00;4988618;28;20042;-70
2023/07/24 03:32:39;;;;;;;72.57;69.18;;;;;;;22.25;50.59;100188.75;4990305;28;20027;-70
2023/07/24 03:35:06;;;;;;;74.80;71.30;;;;;;;22.23;50.38;100180.88;4988686;28;20174;-72
2023/07/24 03:37:32;;;;;;;73.50;70.10;;;;;;;22.23;50.49;100191.06;4991443;28;20659;-71
2023/07/24 03:39:57;;;;;;;72.35;68.72;;;;;;;22.22;50.53;100187.50;4988555;28;20031;-73
2023/07/24 03:42:32;;;;;;;70.85;67.55;;;;;;;22.21;50.78;100194.16;4988052;28;20430;-72
2023/07/24 03:44:57;;;;;;;75.95;72.32;;;;;;;22.20;50.72;100191.72;4986465;28;20039;-72
2023/07/24 03:47:23;;;;;;;74.32;70.82;;;;;;;22.20;50.40;100188.97;4984602;28;20038;-72
2023/07/24 03:49:50;;;;;;;71.55;68.25;;;;;;;22.18;50.66;100188.50;4980340;28;20026;-71
2023/07/24 03:52:15;;;;;;;73.38;69.70;;;;;;;22.18;50.85;100183.00;4990303;28;20473;-70
2023/07/24 03:54:41;;;;;;;74.97;71.47;;;;;;;22.17;50.86;100187.66;4987136;28;20570;-69
2023/07/24 03:57:06;;;;;;;73.70;70.00;;;;;;;22.17;51.02;100186.84;4983441;28;20058;-69
2023/07/24 03:59:32;;;;;;;74.57;70.75;;;;;;;22.15;50.70;100186.38;4989034;28;20053;-74
2023/07/24 04:01:58;;;;;;;73.78;70.38;;;;;;;22.14;50.91;100193.84;5000784;28;20197;-82
2023/07/24 04:04:24;;;;;;;72.88;69.22;;;;;;;22.14;50.68;100210.34;4985628;28;20034;-71
2023/07/24 04:06:49;;;;;;;73.93;70.13;;;;;;;22.13;50.94;100211.50;4992747;28;20036;-71
2023/07/24 04:09:15;;;;;;;74.05;70.50;;;;;;;22.12;50.43;100203.56;4983977;28;20030;-72
2023/07/24 04:11:41;;;;;;;72.28;68.88;;;;;;;22.11;50.74;100207.47;4969254;28;20037;-71
2023/07/24 04:14:06;;;;;;;72.60;68.93;;;;;;;22.10;50.80;100203.91;4983498;28;20463;-71
2023/07/24 04:16:32;;;;;;;72.60;69.18;;;;;;;22.09;50.72;100213.28;4989431;28;20042;-71
2023/07/24 04:18:57;;;;;;;71.50;68.10;;;;;;;22.08;50.37;100205.38;4985958;28;20096;-74
2023/07/24 04:21:23;;;;;;;70.25;66.65;;;;;;;22.08;50.82;100210.88;4988004;28;20487;-71
2023/07/24 04:23:48;;;;;;;72.82;69.38;;;;;;;22.06;50.64;100205.72;4979586;28;20035;-70
2023/07/24 04:26:13;;;;;;;76.55;72.78;;;;;;;22.05;50.70;100204.09;4983927;28;20037;-72
2023/07/24 04:28:39;;;;;;;74.57;71.07;;;;;;;22.04;50.33;100206.03;4983371;28;20434;-70
2023/07/24 04:31:04;;;;;;;73.55;69.55;;;;;;;22.04;50.59;100210.72;4985806;28;20036;-71
2023/07/24 04:33:30;;;;;;;70.90;67.50;;;;;;;22.02;50.31;100202.81;4984995;28;20043;-70
2023/07/24 04:35:55;;;;;;;75.72;72.20;;;;;;;22.01;50.89;100203.16;4977201;28;20138;-70
2023/07/24 04:38:21;;;;;;;74.38;70.68;;;;;;;22.01;50.35;100200.41;4991271;28;20387;-71
2023/07/24 04:40:47;;;;;;;71.82;68.53;;;;;;;22.00;50.51;100207.03;4984040;28;20329;-70
2023/07/24 04:43:12;;;;;;;73.65;70.13;;;;;;;21.98;50.19;100203.81;4986141;28;20478;-71
2023/07/24 04:45:38;;;;;;;72.68;69.28;;;;;;;21.97;50.96;100214.03;4980890;28;20494;-71
2023/07/24 04:48:04;;;;;;;76.05;72.55;;;;;;;21.96;50.71;100211.59;4986714;28;20464;-69
2023/07/24 04:50:29;;;;;;;74.05;70.35;;;;;;;21.95;50.45;100204.50;4986533;28;20087;-71
2023/07/24 04:52:55;;;;;;;74.03;70.53;;;;;;;21.94;50.88;100200.91;4981266;28;20033;-69
2023/07/24 04:55:21;;;;;;;73.38;69.88;;;;;;;21.93;50.37;100204.81;4988465;28;20069;-70
2023/07/24 04:57:46;;;;;;;74.00;70.50;;;;;;;21.92;50.37;100203.19;4992007;28;20565;-70
2023/07/24 05:00:12;;;;;;;73.43;69.97;;;;;;;21.90;50.91;100205.47;4988155;28;20043;-75
2023/07/24 05:02:38;;;;;;;71.13;67.65;;;;;;;21.90;50.61;100210.97;4988249;28;20084;-70
2023/07/24 05:05:04;;;;;;;71.72;68.40;;;;;;;21.90;50.73;100199.16;4990800;28;20038;-78
2023/07/24 05:07:29;;;;;;;73.53;69.93;;;;;;;21.88;50.56;100207.75;4983027;28;20054;-71
2023/07/24 05:09:55;;;;;;;76.45;72.95;;;;;;;21.87;50.47;100205.31;4988025;28;20042;-70
2023/07/24 05:12:20;;;;;;;75.45;71.75;;;;;;;21.87;50.30;100213.56;4986827;28;20704;-70
2023/07/24 05:14:45;;;;;;;70.05;66.75;;;;;;;21.85;50.23;100205.66;4985616;28;20119;-70
2023/07/24 05:17:11;;;;;;;73.35;69.85;;;;;;;21.85;50.68;100213.09;4981895;28;20041;-70
2023/07/24 05:19:36;;;;;;;71.82;68.32;;;;;;;21.83;50.87;100217.00;4987586;28;20038;-70
2023/07/24 05:22:01;;;;;;;70.88;67.47;;;;;;;21.83;50.33;100224.44;4986635;28;20072;-70
2023/07/24 05:24:27;;;;;;;70.18;66.78;;;;;;;21.81;50.45;100224.75;4984486;28;20049;-71
2023/07/24 05:26:52;;;;;;;70.85;67.40;;;;;;;21.81;50.51;100224.75;4990996;28;20077;-73
2023/07/24 05:29:18;;;;;;;74.72;70.95;;;;;;;21.79;50.91;100216.03;4981364;28;20057;-68
2023/07/24 05:31:44;;;;;;;72.93;69.03;;;;;;;21.78;50.48;100225.44;4986016;28;20045;-68
2023/07/24 05:34:09;;;;;;;72.68;69.18;;;;;;;21.78;51.03;100221.88;4990016;28;20038;-69
2023/07/24 05:36:35;;;;;;;68.93;65.53;;;;;;;21.76;50.69;100226.91;4988039;28;20038;-69
2023/07/24 05:39:00;;;;;;;71.85;68.35;;;;;;;21.75;50.89;100226.09;4998910;28;20406;-69
2023/07/24 05:41:26;;;;;;;73.57;69.90;;;;;;;21.74;50.62;100227.22;4987265;28;20039;-69
2023/07/24 05:43:51;;;;;;;73.03;69.53;;;;;;;21.74;50.96;100234.66;4975359;28;20058;-69
2023/07/24 05:46:16;;;;;;;70.28;66.88;;;;;;;21.74;50.61;100231.91;4984873;28;20042;-71
2023/07/24 05:48:42;;;;;;;74.20;70.65;;;;;;;21.73;51.06;100228.34;4973216;28;20471;-71
2023/07/24 05:51:08;;;;;;;69.15;65.75;;;;;;;21.72;50.64;100234.19;4989491;28;20383;-76
2023/07/24 05:53:33;;;;;;;71.65;67.90;;;;;;;21.72;50.44;100234.19;4976481;28;20031;-72
2023/07/24 05:56:00;;;;;;;72.32;68.93;;;;;;;21.69;51.05;100227.41;4985559;28;20039;-71
2023/07/24 05:58:26;;;;;;;73.95;69.80;;;;;;;21.69;50.83;100232.09;4972853;28;20075;-70
2023/07/24 06:00:51;;;;;;;71.20;67.80;;;;;;;21.69;50.96;100232.09;4989880;28;20482;-71
2023/07/24 06:03:17;;;;;;;71.68;68.18;;;;;;;21.68;51.06;100239.53;4991536;28;20043;-71
2023/07/24 06:05:42;;;;;;;73.50;68.65;;;;;;;21.68;51.01;100241.50;4985221;28;20180;-71
2023/07/24 06:08:11;;;;;;;72.07;68.47;;;;;;;21.66;51.08;100241.81;4983213;28;20042;-75
2023/07/24 06:10:36;;;;;;;70.65;67.05;;;;;;;21.66;50.54;100243.75;4988468;28;20525;-71
2023/07/24 06:13:02;;;;;;;70.82;66.55;;;;;;;21.65;50.81;100247.66;4984436;28;20043;-71
2023/07/24 06:15:27;;;;;;;71.50;68.00;;;;;;;21.65;50.81;100258.66;4976167;28;20039;-72
2023/07/24 06:17:53;;;;;;;72.55;68.85;;;;;;;21.64;50.67;100257.81;4955951;28;20038;-71
2023/07/24 06:20:18;;;;;;;71.30;67.65;;;;;;;21.63;50.63;100256.22;4986165;28;20038;-70
2023/07/24 06:22:44;;;;;;;71.18;67.75;;;;;;;21.63;51.13;100255.41;4980893;28;20517;-71
2023/07/24 06:25:09;;;;;;;70.13;66.53;;;;;;;21.63;50.80;100256.22;4977918;28;20042;-70
2023/07/24 06:27:34;;;;;;;74.57;70.93;;;;;;;21.61;50.79;100262.03;4990729;28;20034;-69
2023/07/24 06:30:00;;;;;;;71.90;68.40;;;;;;;21.60;51.10;100257.69;4977578;28;20043;-70
2023/07/24 06:32:25;;;;;;;69.07;65.70;;;;;;;21.61;51.22;100255.72;4977890;28;20070;-70
2023/07/24 06:34:51;;;;;;;71.10;67.60;;;;;;;21.60;51.10;100257.69;4985162;28;20394;-72
2023/07/24 06:37:16;;;;;;;69.82;66.53;;;;;;;21.60;50.41;100251.38;4982959;28;20057;-69
2023/07/24 06:39:41;;;;;;;70.50;67.18;;;;;;;21.60;50.51;100243.94;4969469;28;20426;-69
2023/07/24 06:42:07;;;;;;;71.53;68.05;;;;;;;21.60;51.04;100259.63;4991695;28;20116;-70
2023/07/24 06:44:33;;;;;;;72.63;69.22;;;;;;;21.58;50.65;100254.44;4987416;28;20045;-75
2023/07/24 06:46:58;;;;;;;70.13;66.82;;;;;;;21.59;51.04;100245.06;4982684;28;20043;-70
2023/07/24 06:49:23;;;;;;;71.10;67.60;;;;;;;21.59;50.61;100244.25;4985060;28;20035;-70
2023/07/24 06:51:49;;;;;;;70.65;67.25;;;;;;;21.59;50.95;100241.50;4988544;28;20240;-69
2023/07/24 06:54:14;;;;;;;70.25;66.93;;;;;;;21.59;50.64;100238.75;4986842;28;20046;-72
2023/07/24 06:56:40;;;;;;;69.93;66.53;;;;;;;21.57;50.62;100239.09;4982570;28;20391;-74
2023/07/24 06:59:05;;;;;;;69.28;65.88;;;;;;;21.58;50.54;100237.16;4986278;28;20108;-71
2023/07/24 07:01:30;;;;;;;72.10;68.40;;;;;;;21.58;50.75;100237.16;4983896;28;20220;-71
2023/07/24 07:03:56;;;;;;;70.03;66.47;;;;;;;21.58;50.60;100243.44;4989910;28;20437;-71
2023/07/24 07:06:21;;;;;;;69.22;65.82;;;;;;;21.58;51.12;100240.69;4984768;28;20410;-72
2023/07/24 07:08:46;;;;;;;69.75;66.40;;;;;;;21.58;50.94;100231.66;4987492;28;20525;-74
2023/07/24 07:11:12;;;;;;;71.32;67.90;;;;;;;21.58;51.08;100237.16;4989601;28;20038;-72
2023/07/24 07:13:37;;;;;;;72.05;68.40;;;;;;;21.57;50.75;100247.34;4990315;28;20038;-70
2023/07/24 07:16:03;;;;;;;73.97;70.45;;;;;;;21.57;50.81;100233.59;4986796;28;20039;-73
2023/07/24 07:18:28;;;;;;;72.10;68.47;;;;;;;21.57;50.81;100228.13;4988527;28;20399;-72
2023/07/24 07:20:54;;;;;;;69.93;66.45;;;;;;;21.58;50.68;100237.16;4987139;28;20031;-72
2023/07/24 07:23:20;;;;;;;70.95;67.32;;;;;;;21.57;51.23;100239.09;4987729;28;20117;-74
2023/07/24 07:25:46;;;;;;;69.85;66.35;;;;;;;21.57;50.68;100233.59;4987371;28;20410;-71
2023/07/24 07:28:16;;;;;;;72.57;69.03;;;;;;;21.59;51.26;100241.50;4987537;28;20043;-71
2023/07/24 07:30:42;;;;;;;71.78;68.20;;;;;;;21.59;50.84;100238.75;4988978;28;20046;-72
2023/07/24 07:33:08;;;;;;;71.60;67.95;;;;;;;21.60;50.77;100248.63;4990381;28;20106;-72
2023/07/24 07:35:34;;;;;;;70.68;67.07;;;;;;;21.60;51.00;100241.19;4990257;28;20442;-71
2023/07/24 07:38:00;;;;;;;70.30;66.70;;;;;;;21.60;50.78;100237.63;4989821;28;20133;-71
2023/07/24 07:40:26;;;;;;;73.70;69.90;;;;;;;21.61;50.94;100240.03;4989423;28;20049;-77
2023/07/24 07:42:56;;;;;;;71.40;67.57;;;;;;;21.61;51.22;100237.28;4987164;28;20533;-72
2023/07/24 07:45:23;;;;;;;72.90;69.25;;;;;;;21.62;51.16;100232.63;4989629;28;20026;-72
2023/07/24 07:47:48;;;;;;;69.85;66.43;;;;;;;21.63;51.07;100230.69;4989237;28;20038;-71
2023/07/24 07:50:14;;;;;;;72.30;68.80;;;;;;;21.63;51.47;100239.72;4991682;28;20038;-72
2023/07/24 07:52:39;;;;;;;72.60;68.93;;;;;;;21.63;51.26;100245.22;4988489;28;20049;-76
2023/07/24 07:55:06;;;;;;;72.35;68.70;;;;;;;21.65;51.26;100242.94;4992115;28;20039;-71
2023/07/24 07:57:33;;;;;;;73.10;69.13;;;;;;;21.67;51.20;100240.69;4991245;28;20039;-72
2023/07/24 07:59:59;;;;;;;68.82;65.43;;;;;;;21.68;51.65;100234.03;4991202;28;20073;-70
2023/07/24 08:02:24;;;;;;;75.88;72.25;;;;;;;21.69;51.90;100229.34;4988223;28;20122;-71
2023/07/24 08:04:50;;;;;;;72.47;68.72;;;;;;;21.71;51.48;100233.38;4991028;28;20038;-70
2023/07/24 08:07:15;;;;;;;73.93;70.32;;;;;;;21.71;51.45;100236.13;4988141;28;20108;-70
2023/07/24 08:09:40;;;;;;;73.88;70.25;;;;;;;21.73;51.40;100235.81;4987706;28;20038;-70
2023/07/24 08:12:06;;;;;;;72.82;69.13;;;;;;;21.73;51.54;100233.84;4988677;28;20042;-70
2023/07/24 08:14:32;;;;;;;72.15;68.45;;;;;;;21.75;51.33;100236.28;4990905;28;20038;-70
2023/07/24 08:16:57;;;;;;;71.55;67.97;;;;;;;21.77;51.34;100242.25;4989608;28;20453;-70
2023/07/24 08:19:22;;;;;;;73.88;69.80;;;;;;;21.78;51.78;100249.38;4990623;28;20100;-70
2023/07/24 08:21:48;;;;;;;74.53;70.43;;;;;;;21.79;51.23;100240.78;4989360;28;20478;-72
2023/07/24 08:24:13;;;;;;;69.55;66.10;;;;;;;21.80;51.75;100239.66;4990579;28;20038;-78
2023/07/24 08:26:39;;;;;;;72.40;68.72;;;;;;;21.81;51.53;100238.50;4987625;28;20042;-70
2023/07/24 08:29:05;;;;;;;74.03;70.22;;;;;;;21.82;51.80;100242.06;4988790;28;20038;-69
2023/07/24 08:31:30;;;;;;;70.97;67.03;;;;;;;21.85;51.78;100244.16;4989979;28;20126;-72
2023/07/24 08:33:56;;;;;;;70.07;66.47;;;;;;;21.86;51.33;100234.78;4991318;28;20030;-73
2023/07/24 08:36:21;;;;;;;73.40;69.60;;;;;;;21.87;51.53;100243.81;4993144;28;20030;-76
2023/07/24 08:38:47;;;;;;;73.88;70.07;;;;;;;21.88;51.79;100243.50;4986812;28;20038;-68
2023/07/24 08:41:14;;;;;;;70.50;67.10;;;;;;;21.90;51.78;100245.91;4990642;28;20038;-71
2023/07/24 08:43:42;;;;;;;68.97;65.43;;;;;;;21.90;52.21;100238.47;4990066;28;21902;-75
2023/07/24 08:46:09;;;;;;;72.63;69.00;;;;;;;21.92;52.14;100240.88;4991664;28;20192;-72
2023/07/24 08:48:37;;;;;;;73.53;69.93;;;;;;;21.93;52.18;100242.50;4988284;28;20084;-76
2023/07/24 08:51:07;;;;;;;67.73;64.27;;;;;;;21.93;51.82;100234.25;4988085;28;20046;-71
2023/07/24 08:53:35;;;;;;;73.47;69.57;;;;;;;21.95;51.84;100212.75;4990100;28;20026;-71
2023/07/24 08:56:02;;;;;;;72.88;68.88;;;;;;;21.95;51.92;100221.78;4988138;28;20482;-71
2023/07/24 08:58:28;;;;;;;72.95;69.18;;;;;;;21.97;52.22;100221.44;4986950;28;20034;-77
2023/07/24 09:00:53;;;;;;;70.40;66.90;;;;;;;21.97;52.21;100211.28;4989032;28;20061;-70
2023/07/24 09:03:19;;;;;;;72.45;68.88;;;;;;;21.99;52.20;100210.91;4989595;28;20034;-71
2023/07/24 09:05:45;;;;;;;67.65;64.32;;;;;;;22.01;51.88;100211.41;4989836;28;20038;-74
2023/07/24 09:08:11;;;;;;;71.13;67.53;;;;;;;22.00;52.24;100207.03;4986845;28;20432;-71
2023/07/24 09:10:37;;;;;;;75.50;71.55;;;;;;;22.02;52.22;100202.00;4989411;28;20044;-71
2023/07/24 09:13:03;;;;;;;75.00;70.78;;;;;;;22.03;51.73;100196.19;4984737;28;20034;-70
2023/07/24 09:15:39;;;;;;;71.55;67.82;;;;;;;22.04;51.82;100184.03;4985971;28;20057;-71
2023/07/24 09:18:04;;;;;;;70.10;66.57;;;;;;;22.05;52.29;100193.09;4990216;28;20070;-71
2023/07/24 09:20:41;;;;;;;69.55;66.15;;;;;;;22.06;52.10;100196.66;4988189;28;20077;-70
2023/07/24 09:23:08;;;;;;;73.35;69.43;;;;;;;22.07;51.80;100188.06;4982964;28;20035;-71
2023/07/24 09:25:36;;;;;;;70.78;67.20;;;;;;;22.08;51.73;100194.38;4989418;28;20038;-70
2023/07/24 09:28:09;;;;;;;71.72;68.20;;;;;;;22.08;51.83;100186.94;4988091;28;20038;-75
2023/07/24 09:30:35;;;;;;;71.60;68.10;;;;;;;22.09;52.04;100184.97;4986205;28;20030;-71
2023/07/24 09:33:00;;;;;;;70.88;67.30;;;;;;;22.11;51.88;100177.22;4986785;28;20050;-70
2023/07/24 09:35:28;;;;;;;73.85;70.30;;;;;;;22.11;52.12;100183.50;4989423;28;20038;-70
2023/07/24 09:38:08;;;;;;;71.50;68.00;;;;;;;22.12;52.34;100181.56;4987668;28;20034;-70
2023/07/24 09:40:43;;;;;;;75.35;71.63;;;;;;;22.13;51.83;100177.69;4987153;28;20041;-70
2023/07/24 09:43:18;;;;;;;69.88;66.35;;;;;;;22.14;51.79;100168.28;4987388;28;20037;-68
2023/07/24 09:45:44;;;;;;;72.30;68.70;;;;;;;22.15;51.65;100167.13;4988862;28;20038;-70
2023/07/24 09:48:14;;;;;;;76.57;72.85;;;;;;;22.16;52.23;100157.75;4984227;28;20127;-69
2023/07/24 09:50:40;;;;;;;72.95;69.45;;;;;;;22.17;51.95;100170.34;4987926;28;20030;-68
2023/07/24 09:53:09;;;;;;;72.95;69.15;;;;;;;22.17;52.16;100171.16;4991095;28;20038;-69
2023/07/24 09:55:49;;;;;;;72.13;68.53;;;;;;;22.18;51.93;100172.78;4988597;28;20069;-68
2023/07/24 09:58:18;;;;;;;71.68;68.18;;;;;;;22.19;52.19;100171.66;4985700;28;20069;-69
2023/07/24 10:00:45;;;;;;;73.03;69.43;;;;;;;22.20;51.89;100164.22;4986566;28;20082;-69
2023/07/24 10:03:10;;;;;;;76.50;72.82;;;;;;;22.21;51.94;100165.84;4987522;28;20467;-70
2023/07/24 10:05:36;;;;;;;75.07;71.28;;;;;;;22.21;52.23;100158.38;4982404;28;20038;-70
2023/07/24 10:08:02;;;;;;;72.82;69.07;;;;;;;22.22;51.82;100145.44;4988400;28;20528;-69
2023/07/24 10:10:32;;;;;;;75.57;71.90;;;;;;;22.23;52.24;100138.81;4984538;28;20463;-71
2023/07/24 10:12:58;;;;;;;72.43;68.57;;;;;;;22.24;52.43;100146.69;4983272;28;20035;-69
2023/07/24 10:15:24;;;;;;;72.10;68.45;;;;;;;22.27;52.09;100147.19;4987371;28;20315;-70
2023/07/24 10:17:49;;;;;;;74.25;70.05;;;;;;;22.27;52.12;100147.97;4986160;28;20034;-70
2023/07/24 10:20:17;;;;;;;77.68;73.68;;;;;;;22.28;52.38;100160.59;4984885;28;20501;-69
2023/07/24 10:22:42;;;;;;;78.97;75.10;;;;;;;22.29;52.09;100156.69;4986772;28;20041;-69
2023/07/24 10:25:09;;;;;;;73.72;70.15;;;;;;;22.30;52.45;100160.25;4983679;28;20046;-69
2023/07/24 10:27:45;;;;;;;77.13;72.95;;;;;;;22.31;51.98;100170.94;4984731;28;20044;-72
2023/07/24 10:30:11;;;;;;;76.38;72.57;;;;;;;22.32;52.31;100163.47;4986309;28;20050;-69
2023/07/24 10:32:47;;;;;;;79.38;74.78;;;;;;;22.33;52.14;100163.16;4984468;28;20042;-69
2023/07/24 10:35:12;;;;;;;75.18;71.13;;;;;;;22.34;51.79;100162.00;4983081;28;20053;-71
2023/07/24 10:37:38;;;;;;;76.32;72.43;;;;;;;22.36;52.20;100154.22;4985562;28;20414;-70
2023/07/24 10:40:07;;;;;;;76.55;72.65;;;;;;;22.37;52.09;100150.31;4989009;28;20459;-69
2023/07/24 10:42:33;;;;;;;80.85;76.45;;;;;;;22.38;52.17;100154.69;4988292;28;20065;-74
2023/07/24 10:45:07;;;;;;;80.28;75.80;;;;;;;22.41;51.97;100153.22;4988771;28;20042;-71
2023/07/24 10:47:33;;;;;;;76.90;72.53;;;;;;;22.42;52.15;100158.38;4991390;28;20101;-74
2023/07/24 10:50:00;;;;;;;74.65;70.65;;;;;;;22.43;52.17;100171.00;4986437;28;20033;-69
2023/07/24 10:52:33;;;;;;;77.22;73.55;;;;;;;22.45;51.61;100171.47;4987903;28;20105;-71
2023/07/24 10:55:05;;;;;;;81.10;77.20;;;;;;;22.46;52.11;100181.34;4990438;28;20034;-70
2023/07/24 10:57:31;;;;;;;75.40;71.53;;;;;;;22.47;51.65;100185.69;4994399;28;20042;-70
2023/07/24 10:59:56;;;;;;;75.40;71.65;;;;;;;22.49;51.66;100185.34;4989626;28;20144;-70
2023/07/24 11:02:22;;;;;;;78.05;73.90;;;;;;;22.52;52.06;100197.63;4986404;28;20065;-69
2023/07/24 11:04:47;;;;;;;78.88;75.07;;;;;;;22.53;52.07;100194.56;4986858;28;20038;-70
2023/07/24 11:07:13;;;;;;;77.22;73.35;;;;;;;22.56;51.72;100195.84;4989994;28;20080;-69